Offutt Air Force Base
KOFF : now visible

Airfield :











YOU CAN JOIN US ON...

 
LOGIN :

Register | Disclaimer

   EN    FR    IT 

 









Legend :    VFR   Marginal VFR   IFR   Intensive IFR   Very Intensive IFR
Visi :
Ceiling :
>= 8 km
>= 3000ft
5 to 8 km
1000 to 3000 ft
1500m to 5 km
500 to 1000 ft
800 to 1500m
200 to 500 ft
< 800m
< 200 ft
Symbols :   Thunderstorms  Fog  Heavy snow  Heavy precipitations  Wind > 20 kt






- Airport Elevation : 1052 ft


KOFF - Offutt Air Force Base

CURRENT METAR :
  • 040755Z AUTO 18005KT 10SM CLR M04/M12 A3028 RMK AO2 SLP273 T10421117 PWINO PNO FZRANO TSNO $

EXPIRED METARs :
  • 040655Z AUTO 19005KT 10SM CLR M04/M12 A3029 RMK AO2 SLP277 T10411118 PWINO PNO FZRANO TSNO $
  • 040555Z AUTO 17006KT 10SM CLR M05/M12 A3032 RMK AO2 SLP288 T10481118 11025 21065 400051114 57017 PWINO PNO FZRANO TSNO $

TAF TAF KOFF
Valid from the 04 at 02:00 until the 05 at 08:00 UTC


040200Z 0402/0508 VRB06KT 9999 BKN200 QNH3023INS
BECMG 0415/0416 18009KT 9999 FEW200 QNH2984INS TX07/0420Z TNM08/0410Z
KZMP FIR / North America



MET'MAP, your aeronautical weather chart ! - Copyright ORBIFLY December 2007 - Disclaimer

ORBIFLY MET'MAP TEAM :

Programming & Development : Alexandra Zaïnal
Original concept : Baudouin d'Aumeries
Technical & hardware support : Manuel Goepfert
Assistance : Marc-Olivier Méhu




SOURCES & CREDITS :

   NOAA       Earth
Advisory